Time;durP1;ratioP1;P1;durP2;ratioP2;P2;SDS_P1;SDS_P2;PMS_P1;PMS_P2;Temp;Humidity;BMP_temperature;BMP_pressure;BME280_temperature;BME280_humidity;BME280_pressure;Samples;Min_cycle;Max_cycle;Signal;HPM_P1;HPM_P2
2023/04/22 00:00:48;;;;;;;4.25;3.17;;;;;;;10.06;71.10;99589.31;5032948;28;20057;-60
2023/04/22 00:03:15;;;;;;;3.53;2.92;;;;;;;9.96;70.83;99606.34;5033699;28;20425;-60
2023/04/22 00:05:43;;;;;;;5.20;2.90;;;;;;;9.87;70.16;99598.03;5041736;28;20052;-60
2023/04/22 00:08:11;;;;;;;4.85;3.17;;;;;;;9.83;71.59;99599.03;5053899;28;20078;-60
2023/04/22 00:10:38;;;;;;;6.50;2.95;;;;;;;9.85;70.10;99602.28;5053850;28;20053;-60
2023/04/22 00:13:07;;;;;;;5.88;3.10;;;;;;;9.84;71.18;99597.88;5053368;28;20512;-59
2023/04/22 00:15:34;;;;;;;4.13;3.30;;;;;;;9.83;70.59;99583.16;5033739;28;20060;-59
2023/04/22 00:18:02;;;;;;;4.13;2.90;;;;;;;9.88;70.34;99584.94;5033485;28;20387;-60
2023/04/22 00:20:32;;;;;;;5.45;3.00;;;;;;;9.85;70.72;99582.78;5033930;28;20060;-59
2023/04/22 00:22:59;;;;;;;4.53;2.85;;;;;;;9.80;71.10;99581.00;5033500;28;20068;-59
2023/04/22 00:25:27;;;;;;;3.70;3.15;;;;;;;9.77;70.65;99580.88;5033499;28;20064;-60
2023/04/22 00:27:54;;;;;;;4.20;3.00;;;;;;;9.77;70.07;99578.91;5033438;28;20053;-59
2023/04/22 00:30:25;;;;;;;4.13;3.00;;;;;;;9.75;71.26;99573.69;5033451;28;20398;-59
2023/04/22 00:32:53;;;;;;;3.80;3.05;;;;;;;9.74;70.08;99580.41;5033069;28;20053;-60
2023/04/22 00:35:20;;;;;;;4.70;2.97;;;;;;;9.72;70.80;99571.56;5044510;28;20509;-59
2023/04/22 00:37:47;;;;;;;5.03;3.13;;;;;;;9.73;70.03;99578.75;5053126;28;20045;-60
2023/04/22 00:40:15;;;;;;;4.35;2.97;;;;;;;9.72;71.11;99577.13;5053123;28;20064;-60
2023/04/22 00:42:43;;;;;;;3.85;2.88;;;;;;;9.76;70.96;99577.25;5053065;28;20052;-60
2023/04/22 00:45:12;;;;;;;4.03;2.63;;;;;;;9.73;70.04;99575.97;5052758;28;20051;-60
2023/04/22 00:47:41;;;;;;;5.53;3.00;;;;;;;9.72;70.64;99577.13;5053366;28;20071;-60
2023/04/22 00:50:09;;;;;;;4.30;2.78;;;;;;;9.66;69.16;99572.06;5049666;28;20056;-60
2023/04/22 00:52:36;;;;;;;4.00;2.78;;;;;;;9.66;69.86;99570.09;5053205;28;20482;-60
2023/04/22 00:55:04;;;;;;;3.20;2.80;;;;;;;9.68;70.11;99575.31;5053056;28;20512;-60
2023/04/22 00:57:33;;;;;;;3.80;2.95;;;;;;;9.70;69.47;99573.88;5053126;28;20060;-61
2023/04/22 01:00:01;;;;;;;3.50;2.65;;;;;;;9.72;70.40;99573.50;5053064;28;20405;-61
2023/04/22 01:02:29;;;;;;;4.75;3.20;;;;;;;9.78;69.64;99569.41;5052550;28;20052;-61
2023/04/22 01:05:00;;;;;;;4.38;2.70;;;;;;;9.77;68.94;99566.97;5041794;28;20046;-60
2023/04/22 01:07:27;;;;;;;4.00;2.80;;;;;;;9.77;70.45;99566.97;5032614;28;20046;-60
2023/04/22 01:09:54;;;;;;;4.85;2.70;;;;;;;9.80;70.43;99560.75;5032577;28;20058;-60
2023/04/22 01:12:22;;;;;;;3.67;2.78;;;;;;;9.86;69.92;99560.22;5051949;28;20057;-60
2023/04/22 01:14:49;;;;;;;3.58;2.88;;;;;;;9.89;69.84;99565.13;5052552;28;20406;-60
2023/04/22 01:17:20;;;;;;;3.25;2.80;;;;;;;9.90;70.96;99563.97;5052561;28;20049;-60
2023/04/22 01:19:51;;;;;;;3.63;2.80;;;;;;;9.94;69.85;99558.56;5040581;28;20045;-60
2023/04/22 01:22:21;;;;;;;3.67;3.28;;;;;;;9.99;70.97;99561.16;5032492;28;20053;-60
2023/04/22 01:24:50;;;;;;;3.78;3.10;;;;;;;10.02;70.90;99554.13;5032549;28;20045;-60
2023/04/22 01:27:18;;;;;;;4.88;3.13;;;;;;;10.03;70.08;99556.56;5032621;28;20061;-60
2023/04/22 01:29:48;;;;;;;5.18;3.50;;;;;;;10.06;71.25;99557.88;5031865;28;20060;-60
2023/04/22 01:32:16;;;;;;;3.83;2.78;;;;;;;10.11;70.33;99555.72;5032690;28;20054;-60
2023/04/22 01:34:49;;;;;;;4.88;3.20;;;;;;;10.14;70.13;99557.84;5042640;28;20356;-60
2023/04/22 01:37:17;;;;;;;5.18;3.38;;;;;;;10.18;70.49;99563.53;5052554;28;20061;-60
2023/04/22 01:39:47;;;;;;;4.00;2.67;;;;;;;10.22;69.71;99566.47;5052223;28;20053;-60
2023/04/22 01:42:16;;;;;;;4.28;3.20;;;;;;;10.22;69.22;99564.50;5052574;28;20402;-60
2023/04/22 01:44:43;;;;;;;4.65;2.90;;;;;;;10.14;69.84;99557.84;5052118;28;20052;-61
2023/04/22 01:47:12;;;;;;;5.13;3.17;;;;;;;10.10;70.32;99562.44;5052503;28;20057;-60
2023/04/22 01:49:42;;;;;;;4.88;3.00;;;;;;;10.07;69.91;99563.09;5049208;28;20064;-61
2023/04/22 01:52:12;;;;;;;5.25;3.22;;;;;;;10.10;70.93;99568.00;5051335;28;20049;-60
2023/04/22 01:54:42;;;;;;;4.80;3.30;;;;;;;10.09;69.98;99563.56;5052276;28;20053;-60
2023/04/22 01:57:12;;;;;;;5.07;3.20;;;;;;;10.14;70.81;99577.31;5052390;28;20053;-60
2023/04/22 01:59:41;;;;;;;4.30;3.10;;;;;;;10.16;70.29;99580.59;5052109;28;20421;-60
2023/04/22 02:02:08;;;;;;;4.95;3.50;;;;;;;10.22;69.42;99581.19;5052427;28;20064;-60
2023/04/22 02:04:35;;;;;;;4.43;3.38;;;;;;;10.23;70.55;99573.69;5048373;28;20061;-60
2023/04/22 02:07:06;;;;;;;4.18;3.20;;;;;;;10.21;69.67;99579.59;5052451;28;20049;-60
2023/04/22 02:09:34;;;;;;;5.72;3.78;;;;;;;10.20;69.50;99574.34;5051884;28;20387;-61
2023/04/22 02:12:01;;;;;;;4.95;3.33;;;;;;;10.22;70.42;99581.19;5051711;28;20061;-61
2023/04/22 02:14:28;;;;;;;3.55;3.03;;;;;;;10.26;69.70;99579.38;5052423;28;20501;-60
2023/04/22 02:16:57;;;;;;;6.40;3.70;;;;;;;10.27;70.34;99569.09;5052476;28;20057;-60
2023/04/22 02:19:27;;;;;;;6.68;4.10;;;;;;;10.21;70.15;99576.00;5046018;28;20056;-60
2023/04/22 02:21:54;;;;;;;5.18;3.58;;;;;;;10.20;70.78;99568.78;5052288;28;20049;-60
2023/04/22 02:24:22;;;;;;;5.50;3.60;;;;;;;10.20;70.37;99575.16;5052153;28;20045;-60
2023/04/22 02:26:49;;;;;;;4.75;4.07;;;;;;;10.23;70.32;99568.94;5052071;28;20064;-60
2023/04/22 02:29:16;;;;;;;5.03;3.97;;;;;;;10.28;70.45;99574.31;5052283;28;20057;-60
2023/04/22 02:31:44;;;;;;;5.13;4.15;;;;;;;10.26;71.43;99576.59;5052425;28;20061;-60
2023/04/22 02:34:12;;;;;;;5.38;3.60;;;;;;;10.26;71.40;99571.03;5047164;28;20061;-60
2023/04/22 02:36:40;;;;;;;4.28;3.88;;;;;;;10.31;71.36;99576.47;5031603;28;20406;-59
2023/04/22 02:39:07;;;;;;;6.45;3.70;;;;;;;10.32;70.23;99577.28;5031784;28;20049;-60
2023/04/22 02:41:34;;;;;;;4.80;4.22;;;;;;;10.32;70.40;99575.28;5032381;28;20406;-59
2023/04/22 02:44:05;;;;;;;6.80;4.20;;;;;;;10.31;70.33;99565.31;5035137;28;20053;-60
2023/04/22 02:46:34;;;;;;;4.03;3.63;;;;;;;10.39;70.15;99566.41;5035383;28;20049;-60
2023/04/22 02:49:01;;;;;;;5.30;4.27;;;;;;;10.39;70.94;99566.41;5035075;28;20065;-60
2023/04/22 02:51:31;;;;;;;9.35;4.78;;;;;;;10.41;71.13;99564.09;5035666;28;20053;-60
2023/04/22 02:53:59;;;;;;;7.03;4.95;;;;;;;10.41;70.31;99564.09;5035493;28;20056;-60
2023/04/22 02:56:26;;;;;;;5.40;4.10;;;;;;;10.43;70.00;99564.59;5035588;28;20049;-60
2023/04/22 02:58:53;;;;;;;6.55;3.95;;;;;;;10.43;70.16;99559.03;5035096;28;20053;-60
2023/04/22 03:01:20;;;;;;;6.13;3.85;;;;;;;10.43;71.09;99547.88;5035453;28;20069;-60
2023/04/22 03:03:48;;;;;;;7.60;3.90;;;;;;;10.46;70.97;99549.22;5034340;28;20053;-60
2023/04/22 03:06:15;;;;;;;4.90;3.75;;;;;;;10.47;70.14;99548.03;5036390;28;20056;-60
2023/04/22 03:08:44;;;;;;;7.07;3.70;;;;;;;10.46;70.09;99543.63;5054812;28;20498;-59
2023/04/22 03:11:12;;;;;;;5.15;3.30;;;;;;;10.49;69.29;99540.97;5054824;28;20053;-60
2023/04/22 03:13:39;;;;;;;4.20;3.70;;;;;;;10.47;69.47;99540.50;5054829;28;20053;-60
2023/04/22 03:16:07;;;;;;;5.20;3.78;;;;;;;10.49;69.72;99548.53;5055033;28;20060;-60
2023/04/22 03:18:34;;;;;;;8.23;3.75;;;;;;;10.49;69.88;99543.75;5049470;28;20060;-61
2023/04/22 03:21:01;;;;;;;5.43;3.90;;;;;;;10.54;70.23;99545.53;5034847;28;20076;-60
2023/04/22 03:23:32;;;;;;;5.90;4.25;;;;;;;10.54;70.03;99543.59;5034732;28;20057;-60
2023/04/22 03:26:01;;;;;;;4.63;3.40;;;;;;;10.55;69.32;99538.81;5034642;28;20487;-60
2023/04/22 03:28:28;;;;;;;5.30;3.63;;;;;;;10.55;69.43;99538.81;5034411;28;20049;-59
2023/04/22 03:30:55;;;;;;;5.53;3.78;;;;;;;10.52;69.90;99520.81;5050422;28;20049;-59
2023/04/22 03:33:22;;;;;;;6.72;3.80;;;;;;;10.56;69.60;99529.31;5037709;28;20494;-60
2023/04/22 03:35:50;;;;;;;5.95;4.00;;;;;;;10.63;70.39;99534.38;5054423;28;20049;-60
2023/04/22 03:38:17;;;;;;;4.65;3.58;;;;;;;10.63;70.16;99534.38;5054419;28;20049;-61
2023/04/22 03:40:44;;;;;;;4.53;3.40;;;;;;;10.60;69.44;99524.69;5054557;28;20482;-60
2023/04/22 03:43:13;;;;;;;6.78;3.88;;;;;;;10.60;69.41;99519.13;5054168;28;20053;-61
2023/04/22 03:45:41;;;;;;;4.82;3.58;;;;;;;10.54;69.71;99510.16;5054204;28;20056;-60
2023/04/22 03:48:08;;;;;;;5.13;3.72;;;;;;;10.54;69.16;99512.13;5047869;28;20060;-60
2023/04/22 03:50:36;;;;;;;4.97;3.70;;;;;;;10.56;69.04;99510.66;5034208;28;20509;-61
2023/04/22 03:53:03;;;;;;;5.20;3.75;;;;;;;10.60;69.77;99507.16;5033493;28;20104;-59
2023/04/22 03:55:30;;;;;;;5.53;3.80;;;;;;;10.59;70.06;99513.91;5033878;28;20050;-60
2023/04/22 03:57:58;;;;;;;5.72;3.50;;;;;;;10.60;69.14;99510.75;5033995;28;20055;-60
2023/04/22 04:00:29;;;;;;;5.75;3.70;;;;;;;10.64;69.51;99505.34;5033671;28;20049;-60
2023/04/22 04:02:56;;;;;;;4.68;3.80;;;;;;;10.61;69.71;99511.59;5034071;28;20050;-60
2023/04/22 04:05:24;;;;;;;7.18;3.65;;;;;;;10.63;69.61;99509.28;5033661;28;20050;-59
2023/04/22 04:07:51;;;;;;;5.20;3.50;;;;;;;10.62;70.02;99507.66;5048303;28;20056;-60
2023/04/22 04:10:18;;;;;;;5.15;3.83;;;;;;;10.64;70.06;99499.78;5053725;28;20504;-60
2023/04/22 04:12:45;;;;;;;4.05;3.65;;;;;;;10.63;69.96;99504.53;5053255;28;20060;-60
2023/04/22 04:15:13;;;;;;;7.05;4.55;;;;;;;10.63;70.08;99496.19;5053745;28;20056;-60
2023/04/22 04:17:41;;;;;;;6.13;3.75;;;;;;;10.68;69.24;99489.59;5046832;28;20120;-60
2023/04/22 04:20:09;;;;;;;5.57;3.88;;;;;;;10.65;69.15;99488.31;5033520;28;20060;-60
2023/04/22 04:22:37;;;;;;;5.43;3.97;;;;;;;10.59;69.47;99497.19;5033441;28;20058;-60
2023/04/22 04:25:05;;;;;;;5.30;3.97;;;;;;;10.58;69.87;99493.59;5033232;28;20053;-60
2023/04/22 04:27:33;;;;;;;4.85;3.72;;;;;;;10.62;69.60;99496.50;5033314;28;20061;-60
2023/04/22 04:30:03;;;;;;;5.82;4.20;;;;;;;10.63;69.52;99495.38;5033260;28;20088;-59
2023/04/22 04:32:33;;;;;;;4.10;3.58;;;;;;;10.60;69.77;99498.81;5033640;28;20491;-60
2023/04/22 04:35:02;;;;;;;;;;;;;;;10.57;69.97;99492.78;5033450;28;20060;-60
2023/04/22 04:37:29;;;;;;;5.47;4.20;;;;;;;10.59;70.52;99486.88;5032696;28;19928;-61
2023/04/22 04:39:58;;;;;;;7.28;4.40;;;;;;;10.61;70.16;99481.78;5033073;28;20053;-59
2023/04/22 04:42:25;;;;;;;6.03;4.13;;;;;;;10.65;70.69;99474.38;5032843;28;20057;-59
2023/04/22 04:44:53;;;;;;;4.65;4.03;;;;;;;10.70;70.30;99470.56;5032691;28;20471;-59
2023/04/22 04:47:21;;;;;;;5.57;3.90;;;;;;;10.67;70.42;99474.06;5033725;28;20447;-59
2023/04/22 04:49:48;;;;;;;6.10;4.50;;;;;;;10.70;69.63;99465.00;5032495;28;20065;-60
2023/04/22 04:52:17;;;;;;;6.22;4.10;;;;;;;10.68;69.64;99478.44;5032978;28;20053;-60
2023/04/22 04:54:44;;;;;;;5.38;3.90;;;;;;;10.71;69.94;99483.34;5032453;28;20064;-61
2023/04/22 04:57:12;;;;;;;6.72;4.45;;;;;;;10.79;70.06;99473.28;5032789;28;20053;-61
2023/04/22 04:59:39;;;;;;;7.07;4.20;;;;;;;10.78;69.70;99466.91;5032864;28;20049;-60
2023/04/22 05:02:06;;;;;;;5.22;4.13;;;;;;;10.75;70.17;99462.84;5033384;28;20128;-60
2023/04/22 05:04:33;;;;;;;5.95;4.45;;;;;;;10.81;70.14;99460.63;5033455;28;20059;-60
2023/04/22 05:07:00;;;;;;;6.35;4.00;;;;;;;10.86;69.62;99460.44;5040006;28;20405;-60
2023/04/22 05:09:29;;;;;;;5.82;4.20;;;;;;;10.93;69.61;99463.47;5052451;28;20060;-60
2023/04/22 05:11:56;;;;;;;7.90;4.38;;;;;;;10.93;69.43;99466.28;5035318;28;20058;-60
2023/04/22 05:14:23;;;;;;;8.68;4.60;;;;;;;10.97;70.01;99463.63;5032138;28;20064;-60
2023/04/22 05:16:51;;;;;;;6.95;4.38;;;;;;;11.06;69.78;99480.25;5039269;28;20072;-60
2023/04/22 05:19:18;;;;;;;6.38;4.78;;;;;;;11.16;69.01;99490.97;5052696;28;20060;-60
2023/04/22 05:21:45;;;;;;;6.20;4.90;;;;;;;11.24;69.13;99481.72;5052483;28;20057;-60
2023/04/22 05:24:12;;;;;;;6.32;4.55;;;;;;;11.30;68.92;99474.78;5050746;28;20486;-59
2023/04/22 05:26:41;;;;;;;5.50;4.75;;;;;;;11.35;68.75;99474.53;5051982;28;20049;-60
2023/04/22 05:29:08;;;;;;;6.82;4.85;;;;;;;11.44;68.59;99468.88;5052618;28;20049;-59
2023/04/22 05:31:36;;;;;;;5.13;4.55;;;;;;;11.52;68.53;99462.38;5047286;28;20049;-60
2023/04/22 05:34:03;;;;;;;6.30;5.22;;;;;;;11.60;68.09;99462.66;5038660;28;20418;-61
2023/04/22 05:36:30;;;;;;;6.28;4.80;;;;;;;11.68;67.99;99470.09;5052439;28;20045;-60
2023/04/22 05:38:57;;;;;;;6.53;5.00;;;;;;;11.79;67.43;99465.69;5052066;28;20064;-60
2023/04/22 05:41:25;;;;;;;9.00;5.00;;;;;;;11.89;67.64;99470.03;5052417;28;20057;-60
2023/04/22 05:43:53;;;;;;;6.40;4.65;;;;;;;11.99;67.06;99461.22;5052410;28;20061;-59
2023/04/22 05:46:20;;;;;;;6.38;5.10;;;;;;;12.03;66.87;99464.91;5048310;28;20057;-60
2023/04/22 05:48:48;;;;;;;8.68;5.43;;;;;;;12.12;66.82;99462.81;5033433;28;20057;-59
2023/04/22 05:51:15;;;;;;;7.15;4.97;;;;;;;12.22;66.42;99464.34;5032188;28;20057;-60
2023/04/22 05:53:42;;;;;;;8.20;4.95;;;;;;;12.36;66.21;99458.38;5032115;28;20144;-60
2023/04/22 05:56:10;;;;;;;6.72;5.65;;;;;;;12.49;66.04;99461.97;5032066;28;20057;-60
2023/04/22 05:58:37;;;;;;;7.88;5.30;;;;;;;12.36;66.37;99467.56;5031619;28;20049;-59
2023/04/22 06:01:06;;;;;;;6.97;4.70;;;;;;;12.55;65.50;99464.16;5032079;28;20049;-60
2023/04/22 06:03:33;;;;;;;6.05;5.00;;;;;;;12.78;65.58;99466.41;5036567;28;20053;-59
2023/04/22 06:06:00;;;;;;;7.25;4.70;;;;;;;12.95;64.84;99454.94;5035319;28;20060;-59
2023/04/22 06:08:30;;;;;;;8.73;5.18;;;;;;;13.13;64.98;99461.06;5051861;28;20045;-60
2023/04/22 06:10:57;;;;;;;9.13;5.57;;;;;;;13.22;64.20;99460.09;5051449;28;20053;-60
2023/04/22 06:13:26;;;;;;;5.53;5.03;;;;;;;13.30;64.58;99459.94;5051640;28;20053;-60
2023/04/22 06:15:53;;;;;;;7.88;5.95;;;;;;;13.47;64.33;99464.41;5052221;28;20056;-60
2023/04/22 06:18:22;;;;;;;9.43;5.95;;;;;;;13.59;62.89;99455.13;5036990;28;20060;-61
2023/04/22 06:20:49;;;;;;;9.25;6.22;;;;;;;13.67;63.70;99440.16;5035391;28;20060;-60
2023/04/22 06:23:16;;;;;;;7.30;6.40;;;;;;;13.81;62.38;99451.69;5035439;28;20507;-60
2023/04/22 06:25:43;;;;;;;7.25;5.72;;;;;;;13.95;62.90;99450.44;5051073;28;20057;-61
2023/04/22 06:28:11;;;;;;;8.52;5.60;;;;;;;14.14;62.86;99442.09;5055329;28;20049;-60
2023/04/22 06:30:38;;;;;;;7.25;5.18;;;;;;;14.29;62.05;99436.84;5055394;28;20100;-59
2023/04/22 06:33:05;;;;;;;9.60;6.78;;;;;;;14.47;61.67;99438.06;5051450;28;20072;-61
2023/04/22 06:35:37;;;;;;;7.22;5.30;;;;;;;14.68;61.39;99450.91;5055341;28;20466;-59
2023/04/22 06:38:05;;;;;;;6.57;4.70;;;;;;;14.96;60.96;99454.34;5055173;28;20053;-60
2023/04/22 06:40:32;;;;;;;6.47;5.38;;;;;;;15.15;60.90;99456.31;5055089;28;20053;-58
2023/04/22 06:42:59;;;;;;;6.28;5.03;;;;;;;15.30;60.59;99448.19;5055236;28;20540;-60
2023/04/22 06:45:27;;;;;;;6.00;5.05;;;;;;;15.35;60.15;99447.88;5054975;28;20057;-60
2023/04/22 06:47:54;;;;;;;6.90;5.20;;;;;;;15.45;59.87;99452.88;5039637;28;20360;-60
2023/04/22 06:50:22;;;;;;;5.55;4.97;;;;;;;15.67;59.68;99447.69;5034821;28;20053;-60
2023/04/22 06:52:51;;;;;;;6.00;5.35;;;;;;;15.88;59.09;99458.50;5034857;28;20057;-60
2023/04/22 06:55:18;;;;;;;5.95;5.05;;;;;;;16.10;58.94;99452.03;5034930;28;20064;-60
2023/04/22 06:57:46;;;;;;;5.82;5.22;;;;;;;16.31;57.63;99450.75;5034975;28;20076;-60
2023/04/22 07:00:14;;;;;;;5.72;5.13;;;;;;;16.44;57.54;99440.91;5034178;28;20375;-59
2023/04/22 07:02:44;;;;;;;9.95;6.93;;;;;;;16.80;57.00;99447.03;5049957;28;20053;-60
2023/04/22 07:05:11;;;;;;;;;;;;;;;17.04;56.38;99440.13;5055472;28;20075;-60
2023/04/22 07:07:38;;;;;;;12.82;9.23;;;;;;;17.38;56.17;99446.53;5051649;28;19921;-60
2023/04/22 07:10:08;;;;;;;10.82;8.10;;;;;;;17.69;54.67;99440.81;5037667;28;20414;-60
2023/04/22 07:12:37;;;;;;;7.15;6.25;;;;;;;17.83;53.96;99433.34;5034246;28;20387;-60
2023/04/22 07:15:05;;;;;;;7.10;5.68;;;;;;;17.96;53.88;99427.41;5034770;28;20050;-60
2023/04/22 07:17:33;;;;;;;6.38;5.72;;;;;;;18.32;53.40;99431.28;5041723;28;20049;-59
2023/04/22 07:20:00;;;;;;;6.35;5.00;;;;;;;18.54;52.55;99443.53;5049752;28;20405;-60
2023/04/22 07:22:27;;;;;;;6.47;5.15;;;;;;;18.71;52.84;99439.19;5054528;28;20068;-59
2023/04/22 07:24:55;;;;;;;7.75;5.00;;;;;;;18.86;52.95;99425.97;5054554;28;20064;-60
2023/04/22 07:27:24;;;;;;;5.18;4.20;;;;;;;19.03;53.00;99433.69;5053601;28;20049;-60
2023/04/22 07:29:54;;;;;;;4.30;3.85;;;;;;;19.05;52.32;99424.84;5054161;28;20064;-59
2023/04/22 07:32:21;;;;;;;5.22;4.50;;;;;;;18.95;52.09;99420.75;5042271;28;20056;-60
2023/04/22 07:34:48;;;;;;;7.15;4.55;;;;;;;19.19;52.15;99421.25;5052910;28;20056;-59
2023/04/22 07:37:16;;;;;;;5.15;4.13;;;;;;;19.93;50.84;99428.25;5054335;28;20053;-59
2023/04/22 07:39:43;;;;;;;4.80;3.75;;;;;;;19.96;50.34;99416.13;5054102;28;20053;-59
2023/04/22 07:42:11;;;;;;;5.47;3.60;;;;;;;21.08;48.57;99419.50;5054205;28;20405;-60
2023/04/22 07:44:40;;;;;;;3.20;2.80;;;;;;;22.28;44.68;99412.66;5054054;28;20063;-60
2023/04/22 07:47:07;;;;;;;5.82;3.20;;;;;;;23.02;41.71;99396.00;5050506;28;20406;-59
2023/04/22 07:49:34;;;;;;;5.80;2.63;;;;;;;23.35;39.69;99410.59;5052522;28;20057;-60
2023/04/22 07:52:02;;;;;;;2.28;1.70;;;;;;;23.69;35.88;99404.00;5054112;28;20067;-59
2023/04/22 07:54:29;;;;;;;2.38;1.55;;;;;;;24.18;34.34;99398.72;5054057;28;20053;-60
2023/04/22 07:56:57;;;;;;;3.35;1.85;;;;;;;24.57;33.17;99402.91;5054118;28;20068;-58
2023/04/22 07:59:24;;;;;;;3.15;1.77;;;;;;;25.11;32.94;99388.38;5053602;28;20059;-59
2023/04/22 08:01:53;;;;;;;2.40;1.75;;;;;;;26.18;30.87;99392.78;5047250;28;20050;-58
2023/04/22 08:04:23;;;;;;;3.28;1.63;;;;;;;26.99;28.96;99376.69;5032903;28;20060;-59
2023/04/22 08:06:51;;;;;;;2.33;1.40;;;;;;;27.69;28.67;99382.69;5041258;28;20049;-58
2023/04/22 08:09:18;;;;;;;2.67;1.55;;;;;;;28.69;26.67;99367.81;5053279;28;20482;-59
2023/04/22 08:11:46;;;;;;;2.05;1.38;;;;;;;28.52;27.16;99375.81;5053293;28;20061;-59
2023/04/22 08:14:13;;;;;;;2.78;1.30;;;;;;;29.13;26.11;99379.28;5053701;28;20409;-59
2023/04/22 08:16:42;;;;;;;3.55;1.40;;;;;;;29.51;25.82;99365.91;5050782;28;20053;-59
2023/04/22 08:19:11;;;;;;;2.50;1.52;;;;;;;29.95;25.05;99363.69;5044168;28;20516;-59
2023/04/22 08:21:38;;;;;;;3.70;1.80;;;;;;;29.74;25.14;99367.47;5053486;28;20063;-59
2023/04/22 08:24:06;;;;;;;2.53;1.35;;;;;;;30.59;24.14;99373.66;5037909;28;20058;-59
2023/04/22 08:26:38;;;;;;;2.33;1.55;;;;;;;29.55;25.28;99358.75;5031881;28;20045;-58
2023/04/22 08:29:06;;;;;;;2.45;1.50;;;;;;;30.15;24.33;99376.78;5050614;28;20056;-59
2023/04/22 08:31:34;;;;;;;2.38;1.67;;;;;;;30.33;23.40;99365.34;5049027;28;20060;-59
2023/04/22 08:34:01;;;;;;;2.30;1.48;;;;;;;29.75;24.86;99372.72;5032329;28;20054;-59
2023/04/22 08:36:30;;;;;;;2.42;1.38;;;;;;;30.00;24.29;99358.59;5033197;28;20058;-59
2023/04/22 08:38:57;;;;;;;2.65;1.60;;;;;;;30.01;24.52;99355.25;5050781;28;20536;-59
2023/04/22 08:41:26;;;;;;;1.70;1.30;;;;;;;31.02;23.66;99357.34;5052462;28;20052;-58
2023/04/22 08:43:53;;;;;;;4.82;1.60;;;;;;;30.34;24.04;99372.72;5052936;28;20353;-59
2023/04/22 08:46:22;;;;;;;2.10;1.50;;;;;;;30.56;23.61;99357.38;5052792;28;20049;-58
2023/04/22 08:48:50;;;;;;;;;;;;;;;30.38;24.63;99355.31;5042680;28;20375;-58
2023/04/22 08:51:18;;;;;;;2.53;1.40;;;;;;;30.39;23.95;99351.16;5052767;28;20122;-59
2023/04/22 08:53:47;;;;;;;3.42;1.40;;;;;;;31.22;23.69;99359.69;5052399;28;20056;-59
2023/04/22 08:56:14;;;;;;;2.28;1.50;;;;;;;31.41;23.48;99343.13;5052735;28;20056;-59
2023/04/22 08:58:42;;;;;;;2.33;1.35;;;;;;;31.22;23.04;99338.75;5052985;28;20077;-59
2023/04/22 09:01:09;;;;;;;2.85;1.48;;;;;;;31.31;23.02;99348.16;5052845;28;20048;-59
2023/04/22 09:03:40;;;;;;;2.67;1.30;;;;;;;31.19;22.76;99336.84;5046883;28;20405;-58
2023/04/22 09:06:10;;;;;;;2.15;1.40;;;;;;;30.17;24.39;99339.78;5048941;28;20052;-59
2023/04/22 09:08:38;;;;;;;3.90;1.60;;;;;;;29.86;24.30;99348.50;5052540;28;20490;-59
2023/04/22 09:11:07;;;;;;;2.30;1.58;;;;;;;30.25;23.12;99335.31;5052451;28;20049;-59
2023/04/22 09:13:34;;;;;;;2.05;1.50;;;;;;;30.24;23.45;99325.13;5053025;28;20052;-59
2023/04/22 09:16:01;;;;;;;1.88;1.38;;;;;;;30.29;23.94;99332.31;5052680;28;20068;-59
2023/04/22 09:18:29;;;;;;;3.33;1.50;;;;;;;30.98;23.63;99322.22;5043699;28;20060;-59
2023/04/22 09:20:56;;;;;;;1.85;1.42;;;;;;;30.75;23.87;99327.34;5032697;28;20057;-59
2023/04/22 09:23:23;;;;;;;2.25;1.30;;;;;;;31.12;24.18;99337.97;5032490;28;20494;-59
2023/04/22 09:25:51;;;;;;;2.03;1.50;;;;;;;31.29;23.07;99326.88;5032094;28;20509;-59
2023/04/22 09:28:20;;;;;;;3.10;1.70;;;;;;;31.07;23.65;99310.66;5042093;28;20056;-59
2023/04/22 09:30:47;;;;;;;5.00;1.55;;;;;;;30.03;24.57;99334.66;5052329;28;20366;-59
2023/04/22 09:33:16;;;;;;;2.45;1.48;;;;;;;29.36;24.20;99328.41;5046871;28;20494;-59
2023/04/22 09:35:43;;;;;;;2.00;1.40;;;;;;;29.65;24.57;99321.47;5032212;28;20058;-59
2023/04/22 09:38:12;;;;;;;1.90;1.50;;;;;;;30.21;24.50;99311.69;5043335;28;20052;-59
2023/04/22 09:40:42;;;;;;;3.92;1.60;;;;;;;29.80;24.82;99325.38;5052329;28;20053;-59
2023/04/22 09:43:10;;;;;;;1.80;1.30;;;;;;;30.07;23.73;99312.31;5052510;28;20489;-58
2023/04/22 09:45:40;;;;;;;3.33;1.20;;;;;;;30.86;22.63;99317.41;5052502;28;20053;-59
2023/04/22 09:48:10;;;;;;;2.83;1.70;;;;;;;31.12;22.64;99304.28;5045281;28;20057;-59
2023/04/22 09:50:38;;;;;;;2.90;1.60;;;;;;;31.67;22.36;99299.56;5032372;28;20104;-60
2023/04/22 09:53:07;;;;;;;2.70;1.53;;;;;;;31.93;21.70;99303.53;5036200;28;20057;-59
2023/04/22 09:55:36;;;;;;;2.72;1.60;;;;;;;31.74;22.07;99294.22;5036414;28;20057;-59
2023/04/22 09:58:08;;;;;;;1.98;1.30;;;;;;;32.46;20.50;99321.41;5036316;28;20510;-60
2023/04/22 10:00:40;;;;;;;3.75;1.38;;;;;;;32.56;21.28;99279.69;5036028;28;20057;-60
2023/04/22 10:03:08;;;;;;;3.80;1.90;;;;;;;33.44;20.80;99300.34;5042265;28;20057;-59
2023/04/22 10:05:36;;;;;;;4.60;1.38;;;;;;;33.67;20.42;99281.28;5056027;28;20107;-60
2023/04/22 10:08:04;;;;;;;4.22;1.42;;;;;;;34.21;20.31;99281.75;5055958;28;20064;-61
2023/04/22 10:10:32;;;;;;;4.18;1.60;;;;;;;33.82;20.17;99290.69;5055648;28;20071;-60
2023/04/22 10:13:00;;;;;;;3.17;1.43;;;;;;;34.68;19.32;99268.06;5055490;28;20514;-60
2023/04/22 10:15:32;;;;;;;2.38;1.50;;;;;;;34.33;19.60;99269.00;5056029;28;20057;-59
2023/04/22 10:18:02;;;;;;;3.05;1.42;;;;;;;35.00;18.99;99270.19;5045950;28;20057;-60
2023/04/22 10:20:31;;;;;;;4.72;1.52;;;;;;;34.20;18.64;99274.38;5035749;28;20060;-60
2023/04/22 10:22:58;;;;;;;;;;;;;;;34.58;18.88;99276.09;5035952;28;20434;-60
2023/04/22 10:25:27;;;;;;;2.30;1.60;;;;;;;33.75;19.74;99259.34;5036868;28;19928;-59
2023/04/22 10:28:01;;;;;;;2.30;1.50;;;;;;;35.04;18.70;99270.75;5035748;28;20053;-59
2023/04/22 10:30:30;;;;;;;3.22;1.48;;;;;;;36.23;17.71;99261.50;5035611;28;20056;-60
2023/04/22 10:33:37;;;;;;;2.70;1.83;;;;;;;36.22;17.34;99262.78;5036105;28;20060;-59
2023/04/22 10:36:16;;;;;;;4.57;1.95;;;;;;;35.87;17.80;99271.88;5055725;28;20053;-60
2023/04/22 10:39:17;;;;;;;2.55;1.48;;;;;;;35.91;18.06;99266.59;5055474;28;20049;-59
2023/04/22 10:41:56;;;;;;;2.65;1.40;;;;;;;37.38;16.71;99261.88;5055428;28;20048;-59
2023/04/22 10:44:29;;;;;;;1.85;1.50;;;;;;;37.68;16.70;99276.63;5055522;28;20057;-59
2023/04/22 10:47:00;;;;;;;3.65;1.58;;;;;;;38.28;15.91;99254.97;5053267;28;20523;-59
2023/04/22 10:49:30;;;;;;;2.92;1.85;;;;;;;38.21;15.83;99256.34;5034862;28;20061;-59
2023/04/22 10:51:59;;;;;;;2.90;1.42;;;;;;;38.52;15.88;99263.88;5035680;28;20049;-59
2023/04/22 10:55:01;;;;;;;2.65;1.42;;;;;;;38.38;16.04;99259.94;5035461;28;20057;-59
2023/04/22 10:57:40;;;;;;;2.05;1.40;;;;;;;38.97;15.58;99256.94;5035483;28;20058;-59
2023/04/22 11:00:22;;;;;;;3.35;1.60;;;;;;;38.80;15.50;99250.44;5035348;28;20056;-60
2023/04/22 11:02:54;;;;;;;2.25;1.30;;;;;;;39.31;15.36;99257.44;5033191;28;20068;-60
2023/04/22 11:05:25;;;;;;;2.17;1.55;;;;;;;38.46;16.20;99254.34;5035143;28;20395;-60
2023/04/22 11:07:54;;;;;;;2.88;1.60;;;;;;;39.24;15.98;99249.28;5035249;28;20057;-59
2023/04/22 11:10:33;;;;;;;1.88;1.48;;;;;;;40.43;14.62;99242.09;5034766;28;20049;-59
2023/04/22 11:13:01;;;;;;;2.50;1.63;;;;;;;39.47;14.84;99255.69;5034594;28;20066;-59
2023/04/22 11:15:31;;;;;;;3.22;1.70;;;;;;;37.41;16.62;99246.28;5034731;28;20053;-60
2023/04/22 11:17:58;;;;;;;2.88;1.60;;;;;;;35.31;18.76;99266.50;5033007;28;20057;-59
2023/04/22 11:20:29;;;;;;;2.97;1.75;;;;;;;33.44;19.59;99272.25;5034716;28;20056;-59
2023/04/22 11:22:57;;;;;;;3.28;1.60;;;;;;;32.11;20.77;99261.53;5034560;28;20061;-59
2023/04/22 11:25:26;;;;;;;3.47;1.65;;;;;;;32.10;21.09;99283.75;5034536;28;20398;-59
2023/04/22 11:27:54;;;;;;;3.47;1.95;;;;;;;31.93;21.39;99266.09;5034509;28;20054;-58
2023/04/22 11:30:22;;;;;;;2.30;1.63;;;;;;;31.94;21.95;99272.63;5034206;28;20065;-59
2023/04/22 11:32:51;;;;;;;1.98;1.48;;;;;;;31.64;22.33;99266.78;5041778;28;20057;-58
2023/04/22 11:35:20;;;;;;;2.65;1.65;;;;;;;32.52;21.23;99264.66;5054029;28;20060;-58
2023/04/22 11:37:55;;;;;;;3.08;1.60;;;;;;;33.64;20.62;99264.94;5053884;28;20075;-58
2023/04/22 11:40:27;;;;;;;2.85;1.80;;;;;;;33.30;20.56;99265.22;5054286;28;20052;-58